Time;durP1;ratioP1;P1;durP2;ratioP2;P2;SDS_P1;SDS_P2;PMS_P1;PMS_P2;Temp;Humidity;BMP_temperature;BMP_pressure;BME280_temperature;BME280_humidity;BME280_pressure;Samples;Min_cycle;Max_cycle;Signal;HPM_P1;HPM_P2
2022/11/29 00:01:53;;;;;;;;;;;;;;;11.10;100.00;99023.72;4969897;28;20429;-61
2022/11/29 00:04:18;;;;;;;;;;;;;;;11.17;100.00;99026.94;4969711;28;20412;-61
2022/11/29 00:06:44;;;;;;;;;;;;;;;11.05;100.00;99014.47;4969266;28;19921;-61
2022/11/29 00:09:10;;;;;;;;;;;;;;;11.43;100.00;99025.22;4965022;28;19918;-61
2022/11/29 00:14:20;;;;;;;;;;;;;;;11.61;100.00;99003.94;4968322;28;19975;-61
2022/11/29 00:16:48;;;;;;;;;;;;;;;11.39;100.00;99000.44;4970976;28;19925;-61
2022/11/29 00:19:13;;;;;;;;;;;;;;;11.45;100.00;99013.13;4966184;28;19922;-60
2022/11/29 00:21:39;;;;;;;;;;;;;;;11.49;100.00;99009.50;4969646;28;19922;-61
2022/11/29 00:24:04;;;;;;;;;;;;;;;11.61;100.00;99003.94;4967939;28;19936;-61
2022/11/29 00:26:29;;;;;;;;;;;;;;;11.69;100.00;99001.91;4966562;28;19922;-61
2022/11/29 00:28:54;;;;;;;;;;;;;;;11.72;100.00;99004.38;4968088;28;20013;-61
2022/11/29 00:31:20;;;;;;;;;;;;;;;11.63;100.00;98994.41;4967853;28;19926;-61
2022/11/29 00:33:45;;;;;;;;;;;;;;;11.64;100.00;98995.25;4967172;28;19933;-60
2022/11/29 00:36:10;;;;;;;;;;;;;;;11.62;100.00;98995.28;4968775;28;20508;-61
2022/11/29 00:38:36;;;;;;;;;;;;;;;11.49;100.00;98988.88;4967657;28;20470;-60
2022/11/29 00:41:01;;;;;;;;;;;;;;;11.68;100.00;98994.25;4965773;28;19932;-61
2022/11/29 00:43:26;;;;;;;;;;;;;;;11.52;100.00;98993.94;4970080;28;19952;-60
2022/11/29 00:45:52;;;;;;;;;;;;;;;11.55;100.00;98998.16;4967285;28;19926;-60
2022/11/29 00:48:17;;;;;;;;;;;;;;;11.56;100.00;98989.50;4968379;28;20018;-61
2022/11/29 00:50:42;;;;;;;;;;;;;;;11.46;100.00;98991.59;4971190;28;19996;-61
2022/11/29 00:53:08;;;;;;;;;;;;;;;11.62;100.00;99000.44;4970392;28;19922;-61
2022/11/29 00:55:33;;;;;;;;;;;;;;;11.61;100.00;98992.75;4966529;28;19922;-60
2022/11/29 00:57:58;;;;;;;;;;;;;;;11.63;100.00;98991.81;4966423;28;19922;-60
2022/11/29 01:00:23;;;;;;;;;;;;;;;11.61;100.00;98992.75;4964916;28;20744;-61
2022/11/29 01:02:48;;;;;;;;;;;;;;;11.66;100.00;98988.28;4969867;28;20430;-61
2022/11/29 01:05:14;;;;;;;;;;;;;;;11.60;100.00;98991.09;4950153;28;19933;-61
2022/11/29 01:07:39;;;;;;;;;;;;;;;11.51;100.00;98981.94;4969426;28;19914;-61
2022/11/29 01:10:04;;;;;;;;;;;;;;;11.47;100.00;98983.81;4965371;28;19918;-61
2022/11/29 01:12:30;;;;;;;;;;;;;;;11.71;100.00;98994.94;4970191;28;19917;-60
2022/11/29 01:14:56;;;;;;;;;;;;;;;11.60;100.00;98985.94;4970817;28;19926;-60
2022/11/29 01:17:22;;;;;;;;;;;;;;;11.61;100.00;98978.13;4964422;28;19918;-61
2022/11/29 01:19:47;;;;;;;;;;;;;;;11.60;100.00;98986.75;4966157;28;20332;-61
2022/11/29 01:22:12;;;;;;;;;;;;;;;11.58;100.00;98980.81;4968325;28;20346;-61
2022/11/29 01:24:37;;;;;;;;;;;;;;;11.59;100.00;98985.09;4968910;28;20368;-61
2022/11/29 01:27:03;;;;;;;;;;;;;;;11.55;100.00;98991.25;4968295;28;20482;-61
2022/11/29 01:29:28;;;;;;;;;;;;;;;11.78;100.00;98994.72;4966088;28;19913;-61
2022/11/29 01:31:53;;;;;;;;;;;;;;;11.54;100.00;98994.75;4966551;28;19943;-62
2022/11/29 01:34:18;;;;;;;;;;;;;;;11.41;100.00;99002.06;4965705;28;19918;-62
2022/11/29 01:36:44;;;;;;;;;;;;;;;11.38;100.00;99003.88;4967158;28;19970;-61
2022/11/29 01:39:09;;;;;;;;;;;;;;;11.38;100.00;99006.47;4967377;28;19922;-61
2022/11/29 01:41:34;;;;;;;;;;;;;;;11.34;100.00;99010.91;4967209;28;19929;-61
2022/11/29 01:44:00;;;;;;;;;;;;;;;11.35;100.00;99011.75;4968608;28;21219;-61
2022/11/29 01:46:26;;;;;;;;;;;;;;;11.47;100.00;99011.31;4967982;28;19979;-61
2022/11/29 01:48:52;;;;;;;;;;;;;;;11.50;100.00;99019.78;4947885;28;20394;-61
2022/11/29 01:51:17;;;;;;;;;;;;;;;11.40;100.00;99015.00;4965811;28;19929;-61
2022/11/29 01:53:42;;;;;;;;;;;;;;;11.51;100.00;99012.88;4964255;28;20509;-60
2022/11/29 01:56:07;;;;;;;;;;;;;;;11.47;100.00;99021.63;4966933;28;19922;-60
2022/11/29 01:58:33;;;;;;;;;;;;;;;11.46;100.00;99019.94;4964446;28;19976;-60
2022/11/29 02:00:59;;;;;;;;;;;;;;;11.45;100.00;99020.84;4966258;28;19929;-60
2022/11/29 02:03:25;;;;;;;;;;;;;;;11.55;100.00;99021.38;4967776;28;19922;-60
2022/11/29 02:05:50;;;;;;;;;;;;;;;11.56;100.00;99016.13;4970736;28;19925;-61
2022/11/29 02:08:17;;;;;;;;;;;;;;;11.49;100.00;99014.66;4964393;28;19925;-61
2022/11/29 02:10:53;;;;;;;;;;;;;;;11.46;100.00;99010.47;4947380;28;19918;-61
2022/11/29 02:13:25;;;;;;;;;;;;;;;11.51;100.00;99028.34;4966340;28;20024;-61
2022/11/29 02:15:56;;;;;;;;;;;;;;;11.47;100.00;99021.63;4970615;28;19955;-60
2022/11/29 02:18:40;;;;;;;;;;;;;;;11.39;100.00;99013.31;4967600;28;19922;-61
2022/11/29 02:21:15;;;;;;;;;;;;;;;11.43;100.00;99027.81;4966758;28;19922;-61
2022/11/29 02:23:47;;;;;;;;;;;;;;;11.45;100.00;99026.00;4967845;28;19922;-61
2022/11/29 02:26:12;;;;;;;;;;;;;;;11.24;100.00;99030.16;4969937;28;20400;-61
2022/11/29 02:28:56;;;;;;;;;;;;;;;11.29;100.00;99034.28;4971361;28;19917;-61
2022/11/29 02:31:27;;;;;;;;;;;;;;;11.32;100.00;99038.47;4966099;28;19914;-61
2022/11/29 02:34:11;;;;;;;;;;;;;;;11.38;100.00;99038.28;4968573;28;19922;-61
2022/11/29 02:36:39;;;;;;;;;;;;;;;11.34;100.00;99041.84;4968329;28;19929;-61
2022/11/29 02:39:18;;;;;;;;;;;;;;;11.40;100.00;99035.63;4967780;28;19996;-61
2022/11/29 02:41:55;;;;;;;;;;;;;;;11.27;100.00;99041.22;4968665;28;19968;-61
2022/11/29 02:44:21;;;;;;;;;;;;;;;11.29;100.00;99049.75;4964858;28;19996;-61
2022/11/29 02:47:05;;;;;;;;;;;;;;;11.44;100.00;99052.69;4967218;28;19922;-61
2022/11/29 02:49:48;;;;;;;;;;;;;;;11.39;100.00;99052.00;4966893;28;20031;-62
2022/11/29 02:52:18;;;;;;;;;;;;;;;11.37;100.00;99048.63;4969074;28;19971;-61
2022/11/29 02:54:51;;;;;;;;;;;;;;;11.30;100.00;99048.84;4962664;28;19928;-61
2022/11/29 02:57:21;;;;;;;;;;;;;;;11.27;100.00;99055.84;4964387;28;19972;-61
2022/11/29 02:59:49;;;;;;;;;;;;;;;11.18;100.00;99059.56;4965577;28;19957;-62
2022/11/29 03:02:30;;;;;;;;;;;;;;;11.10;100.00;99058.97;4969682;28;19921;-62
2022/11/29 03:05:10;;;;;;;;;;;;;;;11.09;100.00;99067.63;4961488;28;20253;-62
2022/11/29 03:07:41;;;;;;;;;;;;;;;11.27;100.00;99077.31;4962070;28;19966;-62
2022/11/29 03:10:08;;;;;;;;;;;;;;;11.29;100.00;99079.84;4963051;28;19922;-63
2022/11/29 03:12:41;;;;;;;;;;;;;;;11.30;100.00;99082.34;4962748;28;21052;-63
2022/11/29 03:15:15;;;;;;;;;;;;;;;11.26;100.00;99080.75;4960976;28;20032;-63
2022/11/29 03:18:00;;;;;;;;;;;;;;;11.21;100.00;99082.66;4968511;28;19922;-63
2022/11/29 03:20:35;;;;;;;;;;;;;;;11.00;100.00;99078.22;4972456;28;19922;-63
2022/11/29 03:23:03;;;;;;;;;;;;;;;11.09;100.00;99093.38;4969504;28;19929;-64
2022/11/29 03:25:49;;;;;;;;;;;;;;;11.08;100.00;99096.84;4966357;28;19926;-64
2022/11/29 03:28:32;;;;;;;;;;;;;;;10.71;100.00;99100.59;4945417;28;20276;-64
2022/11/29 03:31:01;;;;;;;;;;;;;;;10.65;100.00;99113.66;4968384;28;19944;-62
2022/11/29 03:33:26;;;;;;;;;;;;;;;10.57;100.00;99125.94;4965742;28;20031;-63
2022/11/29 03:36:00;;;;;;;;;;;;;;;10.33;100.00;99135.19;4970488;28;20012;-63
2022/11/29 03:38:28;;;;;;;;;;;;;;;9.86;100.00;99153.63;4968496;28;20271;-63
2022/11/29 03:40:55;;;;;;;;;;;;;;;9.88;100.00;99177.59;4969080;28;19922;-63
2022/11/29 03:43:32;;;;;;;;;;;;;;;9.97;95.72;99203.06;4966938;28;19929;-63
2022/11/29 03:45:59;;;;;;;;;;;;;;;10.02;89.70;99218.38;4966953;28;19932;-67
2022/11/29 03:48:29;;;;;;;;;;;;;;;9.90;84.45;99253.00;4966890;28;19924;-66
2022/11/29 03:51:03;;;;;;;;;;;;;;;10.16;77.59;99269.50;4968756;28;19918;-66
2022/11/29 03:53:54;;;;;;;;;;;;;;;10.14;76.21;99286.69;4968824;28;19992;-64
2022/11/29 03:56:27;;;;;;;;;;;;;;;9.92;75.51;99289.81;4971531;28;19922;-64
2022/11/29 03:59:01;;;;;;;;;;;;;;;9.76;72.11;99316.78;4965617;28;20049;-64
2022/11/29 04:01:42;;;;;;;;;;;;;;;9.93;70.94;99332.66;4969721;28;19930;-65
2022/11/29 04:04:07;;;;;;;;;;;;;;;9.97;69.08;99359.16;4969076;28;20008;-63
2022/11/29 04:06:35;;;;;;;;;;;;;;;10.04;69.00;99369.28;4970402;28;19928;-63
2022/11/29 04:09:12;;;;;;;;;;;;;;;10.09;70.41;99376.88;4967458;28;19922;-64
2022/11/29 04:11:57;;;;;;;;;;;;;;;9.98;70.96;99382.28;4967269;28;19922;-63
2022/11/29 04:14:22;;;;;;;;;;;;;;;9.92;69.83;99403.00;4966222;28;19925;-62
2022/11/29 04:17:00;;;;;;;;;;;;;;;9.79;68.66;99410.16;4966781;28;19922;-62
2022/11/29 04:19:25;;;;;;;;;;;;;;;9.91;65.88;99429.59;4966553;28;20178;-62
2022/11/29 04:22:11;;;;;;;;;;;;;;;9.64;65.18;99434.47;4968128;28;19963;-62
2022/11/29 04:24:55;;;;;;;;;;;;;;;9.92;60.96;99464.75;4965837;28;19926;-62
2022/11/29 04:27:35;;;;;;;;;;;;;;;9.82;58.93;99474.38;4968844;28;19936;-62
2022/11/29 04:30:19;;;;;;;;;;;;;;;9.96;59.33;99489.50;4966590;28;19922;-62
2022/11/29 04:33:05;;;;;;;;;;;;;;;9.86;59.79;99489.78;4968637;28;20021;-62
2022/11/29 04:35:31;;;;;;;;;;;;;;;9.62;60.68;99490.25;4968083;28;20632;-62
2022/11/29 04:38:05;;;;;;;;;;;;;;;9.78;57.21;99510.50;4970735;28;19918;-62
2022/11/29 04:40:50;;;;;;;;;;;;;;;10.01;55.55;99533.16;4964574;28;19922;-61
2022/11/29 04:43:24;;;;;;;;;;;;;;;10.02;56.92;99546.00;4966151;28;19925;-61
2022/11/29 04:45:56;;;;;;;;;;;;;;;9.74;58.48;99534.56;4970224;28;19922;-61
2022/11/29 04:48:24;;;;;;;;;;;;;;;9.77;59.62;99548.22;4970392;28;19976;-62
2022/11/29 04:50:55;;;;;;;;;;;;;;;9.54;60.12;99556.41;4970201;28;20558;-62
2022/11/29 04:53:38;;;;;;;;;;;;;;;9.42;58.08;99584.91;4968615;28;19945;-61
2022/11/29 04:56:16;;;;;;;;;;;;;;;9.55;54.18;99606.94;4966771;28;19937;-62
2022/11/29 04:59:00;;;;;;;;;;;;;;;9.83;52.51;99633.00;4961485;28;19967;-61
2022/11/29 05:01:36;;;;;;;;;;;;;;;9.50;54.30;99628.47;4968945;28;19968;-61
2022/11/29 05:04:20;;;;;;;;;;;;;;;9.63;52.34;99646.22;4966755;28;20412;-61
2022/11/29 05:06:45;;;;;;;;;;;;;;;9.61;51.14;99665.97;4963333;28;19929;-61
2022/11/29 05:09:19;;;;;;;;;;;;;;;9.76;49.88;99687.16;4967266;28;20419;-61
2022/11/29 05:12:03;;;;;;;;;;;;;;;9.56;51.27;99687.50;4965379;28;19922;-61
2022/11/29 05:14:47;;;;;;;;;;;;;;;9.44;51.44;99688.53;4962556;28;19929;-63
2022/11/29 05:17:20;;;;;;;;;;;;;;;9.33;50.41;99698.16;4966629;28;20016;-60
2022/11/29 05:20:11;;;;;;;;;;;;;;;9.37;49.77;99710.94;4965579;28;20307;-60
2022/11/29 05:23:03;;;;;;;;;;;;;;;9.52;49.01;99725.28;4965829;28;19945;-61
2022/11/29 05:25:36;;;;;;;;;;;;;;;9.87;48.38;99731.53;4996557;28;19923;-60
2022/11/29 05:28:15;;;;;;;;;;;;;;;9.77;49.18;99720.56;4966457;28;20036;-60
2022/11/29 05:30:59;;;;;;;;;;;;;;;10.13;48.53;99732.81;4966259;28;19918;-61
2022/11/29 05:33:43;;;;;;;;;;;;;;;10.16;50.16;99725.03;4968307;28;19940;-61
2022/11/29 05:36:27;;;;;;;;;;;;;;;10.28;50.43;99719.63;4966914;28;20668;-60
2022/11/29 05:38:52;;;;;;;;;;;;;;;10.12;52.13;99697.66;4950343;28;19929;-61
2022/11/29 05:41:20;;;;;;;;;;;;;;;9.73;52.54;99687.22;4967802;28;19914;-61
2022/11/29 05:43:47;;;;;;;;;;;;;;;9.68;51.89;99692.44;4969159;28;20695;-61
2022/11/29 05:46:16;;;;;;;;;;;;;;;9.58;51.26;99704.59;4967093;28;20302;-61
2022/11/29 05:48:52;;;;;;;;;;;;;;;9.51;50.75;99721.00;4968104;28;19918;-61
2022/11/29 05:51:30;;;;;;;;;;;;;;;9.28;50.61;99717.94;4968533;28;19917;-61
2022/11/29 05:54:03;;;;;;;;;;;;;;;9.32;50.21;99729.88;4969293;28;19918;-61
2022/11/29 05:56:47;;;;;;;;;;;;;;;9.42;49.53;99755.44;4967208;28;19929;-61
2022/11/29 05:59:14;;;;;;;;;;;;;;;9.33;48.99;99762.44;4968630;28;20383;-61
2022/11/29 06:01:44;;;;;;;;;;;;;;;9.56;47.96;99780.94;4967729;28;20012;-60
2022/11/29 06:04:15;;;;;;;;;;;;;;;9.36;48.83;99780.38;4966610;28;20008;-61
2022/11/29 06:06:53;;;;;;;;;;;;;;;9.48;47.88;99794.75;4968097;28;19984;-61
2022/11/29 06:09:21;;;;;;;;;;;;;;;9.42;47.69;99799.13;4967413;28;20377;-61
2022/11/29 06:12:04;;;;;;;;;;;;;;;9.46;47.49;99811.94;4965340;28;19917;-61
2022/11/29 06:14:41;;;;;;;;;;;;;;;9.52;47.42;99827.28;4963339;28;20271;-60
2022/11/29 06:17:25;;;;;;;;;;;;;;;9.40;47.71;99828.31;4968009;28;19922;-61
2022/11/29 06:19:53;;;;;;;;;;;;;;;9.52;47.18;99838.41;4968260;28;19928;-61
2022/11/29 06:22:21;;;;;;;;;;;;;;;9.64;47.44;99853.66;4968485;28;19918;-61
2022/11/29 06:24:55;;;;;;;;;;;;;;;9.74;47.47;99848.38;4971271;28;19929;-61
2022/11/29 06:27:28;;;;;;;;;;;;;;;9.58;48.72;99838.31;4967378;28;19956;-60
2022/11/29 06:29:59;;;;;;;;;;;;;;;9.84;47.87;99835.34;4962008;28;19918;-61
2022/11/29 06:32:25;;;;;;;;;;;;;;;10.18;47.58;99836.53;4967469;28;19991;-61
2022/11/29 06:34:50;;;;;;;;;;;;;;;9.99;48.93;99813.69;4966777;28;19957;-61
2022/11/29 06:37:34;;;;;;;;;;;;;;;9.94;49.11;99806.91;4965283;28;19926;-61
2022/11/29 06:39:59;;;;;;;;;;;;;;;9.74;49.43;99796.91;4966709;28;19928;-61
2022/11/29 06:42:24;;;;;;;;;;;;;;;9.74;48.88;99800.38;4966086;28;20502;-60
2022/11/29 06:44:50;;;;;;;;;;;;;;;9.68;48.82;99805.59;4968750;28;19968;-61
2022/11/29 06:47:15;;;;;;;;;;;;;;;9.83;47.97;99817.38;4967936;28;19922;-61
2022/11/29 06:49:45;;;;;;;;;;;;;;;9.69;48.82;99815.00;4968230;28;19951;-61
2022/11/29 06:52:18;;;;;;;;;;;;;;;9.69;48.32;99821.88;4968278;28;19924;-61
2022/11/29 06:54:52;;;;;;;;;;;;;;;9.51;48.75;99826.44;4969342;28;20248;-61
2022/11/29 06:57:33;;;;;;;;;;;;;;;9.56;47.77;99837.50;4964421;28;20647;-61
2022/11/29 07:00:02;;;;;;;;;;;;;;;9.54;48.39;99846.94;4965421;28;19928;-61
2022/11/29 07:02:27;;;;;;;;;;;;;;;9.57;48.38;99856.34;4963767;28;20013;-61
2022/11/29 07:05:09;;;;;;;;;;;;;;;9.89;47.62;99871.28;4968686;28;20529;-60
2022/11/29 07:07:35;;;;;;;;;;;;;;;9.85;48.73;99867.06;4964786;28;19957;-60
2022/11/29 07:10:00;;;;;;;;;;;;;;;9.98;48.17;99868.56;4966428;28;20024;-61
2022/11/29 07:12:26;;;;;;;;;;;;;;;9.92;48.67;99858.41;4966993;28;20706;-61
2022/11/29 07:14:52;;;;;;;;;;;;;;;10.07;48.25;99856.44;4966789;28;20003;-61
2022/11/29 07:17:17;;;;;;;;;;;;;;;10.08;48.07;99853.00;4965576;28;19918;-60
2022/11/29 07:19:51;;;;;;;;;;;;;;;9.86;48.89;99847.34;4964204;28;19922;-60
2022/11/29 07:22:35;;;;;;;;;;;;;;;10.00;47.69;99847.97;4967374;28;19929;-60
2022/11/29 07:25:18;;;;;;;;;;;;;;;10.27;47.20;99854.41;4964114;28;19929;-61
2022/11/29 07:27:51;;;;;;;;;;;;;;;10.12;48.02;99844.34;4962418;28;20023;-61
2022/11/29 07:30:18;;;;;;;;;;;;;;;10.23;47.57;99839.88;4959190;28;19930;-61
2022/11/29 07:33:02;;;;;;;;;;;;;;;10.20;47.81;99825.34;4966115;28;19918;-61
2022/11/29 07:35:31;;;;;;;;;;;;;;;10.21;47.45;99826.19;4969811;28;20003;-61
2022/11/29 07:37:57;;;;;;;;;;;;;;;10.11;47.60;99816.94;4965808;28;19918;-61
2022/11/29 07:40:22;;;;;;;;;;;;;;;10.16;47.06;99818.53;4965504;28;19938;-61
2022/11/29 07:43:06;;;;;;;;;;;;;;;10.08;47.42;99817.84;4967912;28;20400;-60
2022/11/29 07:45:32;;;;;;;;;;;;;;;9.95;47.22;99822.31;4968191;28;19978;-61
2022/11/29 07:47:58;;;;;;;;;;;;;;;10.01;46.89;99826.50;4967340;28;19929;-61
2022/11/29 07:50:24;;;;;;;;;;;;;;;10.14;46.29;99837.47;4965016;28;19922;-61
2022/11/29 07:52:49;;;;;;;;;;;;;;;10.21;46.29;99833.91;4968645;28;19925;-61
2022/11/29 07:55:18;;;;;;;;;;;;;;;10.26;46.31;99837.25;4969013;28;19918;-61
2022/11/29 07:57:44;;;;;;;;;;;;;;;10.20;46.37;99827.91;4963782;28;20561;-61
2022/11/29 08:00:09;;;;;;;;;;;;;;;10.24;45.83;99833.84;4968365;28;19975;-61
2022/11/29 08:02:35;;;;;;;;;;;;;;;9.98;46.89;99829.97;4967939;28;19918;-60
2022/11/29 08:05:00;;;;;;;;;;;;;;;9.83;46.18;99825.09;4968795;28;19922;-61
2022/11/29 08:07:26;;;;;;;;;;;;;;;9.76;46.06;99842.34;4967890;28;19917;-61
2022/11/29 08:09:51;;;;;;;;;;;;;;;9.77;45.55;99856.06;4968147;28;19914;-60
2022/11/29 08:12:16;;;;;;;;;;;;;;;9.78;45.13;99875.75;4966830;28;20291;-61
2022/11/29 08:14:42;;;;;;;;;;;;;;;9.69;45.81;99874.16;4966915;28;20009;-60
2022/11/29 08:17:07;;;;;;;;;;;;;;;9.88;45.65;99897.06;4964804;28;20012;-61
2022/11/29 08:19:32;;;;;;;;;;;;;;;9.70;46.65;99890.47;4970289;28;19918;-61
2022/11/29 08:21:57;;;;;;;;;;;;;;;9.74;46.54;99904.97;4963987;28;19954;-60
2022/11/29 08:24:22;;;;;;;;;;;;;;;9.64;46.78;99909.38;4969217;28;20017;-60
2022/11/29 08:26:48;;;;;;;;;;;;;;;9.62;47.02;99923.97;4966238;28;19957;-60
2022/11/29 08:29:14;;;;;;;;;;;;;;;9.70;47.13;99939.34;4970481;28;20024;-60
2022/11/29 08:31:39;;;;;;;;;;;;;;;10.01;46.68;99955.16;4965825;28;19918;-60
2022/11/29 08:34:05;;;;;;;;;;;;;;;9.78;47.79;99937.47;4969635;28;19914;-61
2022/11/29 08:36:30;;;;;;;;;;;;;;;9.78;47.60;99947.78;4969670;28;19925;-61
2022/11/29 08:38:55;;;;;;;;;;;;;;;9.76;47.84;99952.09;4966096;28;20294;-61
2022/11/29 08:41:20;;;;;;;;;;;;;;;9.46;48.57;99946.47;4968486;28;19929;-60
2022/11/29 08:43:46;;;;;;;;;;;;;;;9.53;47.05;99973.81;4967452;28;20007;-61
2022/11/29 08:46:11;;;;;;;;;;;;;;;9.06;47.55;99964.09;4970205;28;20452;-61
2022/11/29 08:48:36;;;;;;;;;;;;;;;8.97;43.83;99990.72;4968809;28;20751;-61
2022/11/29 08:51:02;;;;;;;;;;;;;;;9.09;42.12;100024.00;4964636;28;19918;-61
2022/11/29 08:53:45;;;;;;;;;;;;;;;9.20;41.08;100058.16;4967495;28;20366;-61
2022/11/29 08:56:15;;;;;;;;;;;;;;;9.27;40.74;100086.38;4968986;28;19930;-60
2022/11/29 08:58:40;;;;;;;;;;;;;;;9.01;41.48;100102.88;4968405;28;20004;-60
2022/11/29 09:01:16;;;;;;;;;;;;;;;9.08;41.05;100130.22;4970406;28;19960;-60
2022/11/29 09:06:26;;;;;;;;;;;;;;;9.27;41.33;100214.91;4968000;28;19925;-61
2022/11/29 09:08:57;;;;;;;;;;;;;;;9.11;45.30;100238.13;4949435;28;19918;-60
2022/11/29 09:11:23;;;;;;;;;;;;;;;9.47;46.45;100271.31;4970157;28;19925;-61
2022/11/29 09:13:49;;;;;;;;;;;;;;;9.23;48.69;100262.03;4971036;28;19918;-60
2022/11/29 09:16:16;;;;;;;;;;;;;;;9.02;50.34;100276.72;4970093;28;20363;-60
2022/11/29 09:18:42;;;;;;;;;;;;;;;8.88;52.51;100297.34;4963050;28;20055;-61
2022/11/29 09:21:08;;;;;;;;;;;;;;;8.70;53.64;100313.66;4969386;28;19917;-60
2022/11/29 09:23:33;;;;;;;;;;;;;;;8.59;55.13;100348.78;4971996;28;19918;-60
2022/11/29 09:25:59;;;;;;;;;;;;;;;8.85;55.67;100405.25;4966980;28;20715;-61
2022/11/29 09:28:24;;;;;;;;;;;;;;;8.69;56.03;100430.13;4967720;28;20444;-60
2022/11/29 09:30:49;;;;;;;;;;;;;;;8.69;56.82;100471.22;4968808;28;19918;-60
2022/11/29 09:33:15;;;;;;;;;;;;;;;8.82;58.19;100513.13;4950250;28;19918;-60
2022/11/29 09:35:41;;;;;;;;;;;;;;;8.90;58.76;100542.25;4969344;28;19980;-60
2022/11/29 09:38:06;;;;;;;;;;;;;;;8.90;59.30;100574.81;4970866;28;19918;-61
2022/11/29 09:40:39;;;;;;;;;;;;;;;8.66;60.52;100578.19;4966399;28;19914;-61
2022/11/29 09:43:10;;;;;;;;;;;;;;;8.89;60.96;100619.31;4964744;28;19929;-60
2022/11/29 09:45:36;;;;;;;;;;;;;;;8.86;62.24;100642.44;4971821;28;19921;-60
2022/11/29 09:48:17;;;;;;;;;;;;;;;9.26;61.49;100699.00;4968882;28;19914;-61
2022/11/29 09:50:53;;;;;;;;;;;;;;;8.94;61.30;100681.84;4969347;28;19917;-61
2022/11/29 09:53:27;;;;;;;;;;;;;;;9.09;61.46;100699.84;4953317;28;19917;-61
2022/11/29 09:55:56;;;;;;;;;;;;;;;9.04;61.41;100709.28;4969331;28;19964;-61
2022/11/29 09:58:23;;;;;;;;;;;;;;;9.02;62.06;100702.44;4967712;28;19924;-61
2022/11/29 10:00:49;;;;;;;;;;;;;;;8.91;62.81;100710.97;4964709;28;19954;-60
2022/11/29 10:03:27;;;;;;;;;;;;;;;8.84;63.41;100716.94;4949965;28;20594;-60
2022/11/29 10:05:55;;;;;;;;;;;;;;;9.01;63.08;100745.25;4969840;28;20303;-60
2022/11/29 10:08:23;;;;;;;;;;;;;;;9.03;64.00;100752.97;4969875;28;20288;-60
2022/11/29 10:10:49;;;;;;;;;;;;;;;9.05;63.41;100767.53;4963378;28;19928;-61
2022/11/29 10:13:17;;;;;;;;;;;;;;;9.02;63.57;100767.53;4969261;28;19949;-61
2022/11/29 10:15:43;;;;;;;;;;;;;;;9.60;62.33;100806.22;4968293;28;19917;-60
2022/11/29 10:18:16;;;;;;;;;;;;;;;9.87;60.91;100804.47;4968177;28;19917;-60
2022/11/29 10:20:41;;;;;;;;;;;;;;;9.57;59.66;100748.75;4964802;28;20473;-60
2022/11/29 10:23:25;;;;;;;;;;;;;;;9.42;59.37;100711.03;4964810;28;19932;-60
2022/11/29 10:25:51;;;;;;;;;;;;;;;9.29;58.03;100675.91;4965616;28;20627;-60
2022/11/29 10:28:20;;;;;;;;;;;;;;;9.44;58.11;100675.88;4964106;28;19929;-61
2022/11/29 10:30:46;;;;;;;;;;;;;;;9.23;57.72;100655.31;4971575;28;19918;-60
2022/11/29 10:33:14;;;;;;;;;;;;;;;9.32;58.33;100657.88;4963572;28;19918;-60
2022/11/29 10:35:39;;;;;;;;;;;;;;;9.29;57.64;100643.31;4962016;28;20427;-61
2022/11/29 10:38:05;;;;;;;;;;;;;;;9.27;57.48;100647.59;4965931;28;19918;-60
2022/11/29 10:40:32;;;;;;;;;;;;;;;9.23;58.01;100647.59;4965098;28;19918;-61
2022/11/29 10:42:57;;;;;;;;;;;;;;;9.49;56.85;100663.00;4963526;28;20359;-60
2022/11/29 10:45:39;;;;;;;;;;;;;;;9.45;57.53;100661.31;4967870;28;20262;-60
2022/11/29 10:48:11;;;;;;;;;;;;;;;8.99;58.80;100639.03;4962710;28;19925;-60
2022/11/29 10:50:37;;;;;;;;;;;;;;;8.97;59.89;100651.88;4950349;28;19927;-60
2022/11/29 10:53:13;;;;;;;;;;;;;;;9.13;60.39;100675.03;4963946;28;19914;-60
2022/11/29 10:55:46;;;;;;;;;;;;;;;9.06;60.41;100681.88;4948846;28;19949;-60
2022/11/29 10:58:12;;;;;;;;;;;;;;;9.13;60.92;100691.31;4965931;28;21027;-60
2022/11/29 11:00:56;;;;;;;;;;;;;;;9.15;60.83;100699.88;4969173;28;19995;-60
2022/11/29 11:03:25;;;;;;;;;;;;;;;8.98;61.69;100693.84;4967415;28;19914;-61
2022/11/29 11:06:02;;;;;;;;;;;;;;;8.93;62.53;100682.72;4962643;28;19922;-60
2022/11/29 11:08:28;;;;;;;;;;;;;;;9.00;62.70;100705.84;4960725;28;20485;-60
2022/11/29 11:10:54;;;;;;;;;;;;;;;9.14;62.80;100726.41;4963425;28;20940;-60
2022/11/29 11:13:20;;;;;;;;;;;;;;;9.33;61.73;100731.63;4964252;28;19926;-60
2022/11/29 11:15:46;;;;;;;;;;;;;;;9.15;61.04;100707.59;4963303;28;19929;-60
2022/11/29 11:18:18;;;;;;;;;;;;;;;9.36;59.68;100708.47;4968403;28;19914;-60
2022/11/29 11:20:43;;;;;;;;;;;;;;;9.50;58.57;100698.19;4964316;28;19929;-59
2022/11/29 11:23:25;;;;;;;;;;;;;;;9.47;58.40;100678.47;4962451;28;19914;-60
2022/11/29 11:26:01;;;;;;;;;;;;;;;9.45;57.05;100657.03;4963935;28;20021;-62
2022/11/29 11:28:30;;;;;;;;;;;;;;;9.30;56.35;100639.88;4967473;28;20501;-60
2022/11/29 11:31:00;;;;;;;;;;;;;;;9.03;56.81;100615.03;4962975;28;19914;-61
2022/11/29 11:33:25;;;;;;;;;;;;;;;9.20;56.67;100615.91;4967577;28;20500;-61
2022/11/29 11:36:09;;;;;;;;;;;;;;;9.04;57.62;100606.50;4969785;28;19922;-60
2022/11/29 11:38:36;;;;;;;;;;;;;;;9.16;57.13;100610.75;4968206;28;19920;-61
2022/11/29 11:44:37;;;;;;;;;;;;;;;8.97;57.38;100615.06;4951147;28;19926;-61
2022/11/29 11:47:23;;;;;;;;;;;;;;;9.14;55.89;100623.59;4968469;28;19918;-62
2022/11/29 11:50:01;;;;;;;;;;;;;;;9.37;54.95;100626.19;4966563;28;19918;-61
2022/11/29 11:52:29;;;;;;;;;;;;;;;9.50;53.84;100621.03;4968671;28;20432;-61
2022/11/29 11:55:02;;;;;;;;;;;;;;;9.57;52.21;100603.00;4948297;28;19918;-62
2022/11/29 11:57:28;;;;;;;;;;;;;;;9.75;51.02;100588.38;4969598;28;19960;-61
2022/11/29 11:59:54;;;;;;;;;;;;;;;9.57;49.89;100555.84;4972367;28;19918;-61
2022/11/29 12:02:25;;;;;;;;;;;;;;;9.51;50.08;100533.59;4968968;28;19982;-61
2022/11/29 12:04:51;;;;;;;;;;;;;;;9.39;49.25;100511.31;4970985;28;19922;-61
2022/11/29 12:07:19;;;;;;;;;;;;;;;9.46;48.27;100509.59;4971114;28;19922;-61
2022/11/29 12:09:45;;;;;;;;;;;;;;;9.72;47.44;100508.66;4953293;28;20352;-61
2022/11/29 12:12:23;;;;;;;;;;;;;;;9.88;45.88;100500.00;4968430;28;20398;-61
2022/11/29 12:15:03;;;;;;;;;;;;;;;10.20;43.87;100497.22;4970186;28;19922;-60
2022/11/29 12:17:28;;;;;;;;;;;;;;;10.17;43.29;100450.94;4971174;28;19918;-63
2022/11/29 12:20:17;;;;;;;;;;;;;;;10.28;41.37;100432.78;4972119;28;19918;-62
2022/11/29 12:22:55;;;;;;;;;;;;;;;10.19;41.06;100389.94;4974352;28;19918;-62
2022/11/29 12:25:28;;;;;;;;;;;;;;;10.09;40.05;100357.44;4964448;28;19930;-62
2022/11/29 12:27:53;;;;;;;;;;;;;;;10.04;38.90;100339.47;4968239;28;19917;-61
2022/11/29 12:30:19;;;;;;;;;;;;;;;10.15;38.55;100321.38;4971902;28;19920;-61
2022/11/29 12:32:44;;;;;;;;;;;;;;;10.10;37.73;100301.66;4970853;28;20004;-61
2022/11/29 12:35:24;;;;;;;;;;;;;;;10.35;36.89;100305.72;4968875;28;20040;-61
2022/11/29 12:38:08;;;;;;;;;;;;;;;10.03;37.93;100270.84;4969545;28;20012;-61
2022/11/29 12:40:44;;;;;;;;;;;;;;;10.12;37.33;100287.91;4968782;28;19925;-61
2022/11/29 12:43:25;;;;;;;;;;;;;;;10.51;35.39;100297.84;4972076;28;19922;-61
2022/11/29 12:46:06;;;;;;;;;;;;;;;10.20;36.31;100270.69;4969222;28;19922;-61
2022/11/29 12:48:50;;;;;;;;;;;;;;;9.90;36.96;100260.66;4966707;28;20244;-61
2022/11/29 12:51:26;;;;;;;;;;;;;;;9.83;37.38;100275.31;4971630;28;19918;-61
2022/11/29 12:54:10;;;;;;;;;;;;;;;9.65;38.28;100276.31;4968515;28;19913;-61
2022/11/29 12:56:37;;;;;;;;;;;;;;;9.71;38.13;100301.97;4972877;28;19925;-61
2022/11/29 12:59:17;;;;;;;;;;;;;;;9.99;37.55;100318.06;4967850;28;20397;-61
2022/11/29 13:01:52;;;;;;;;;;;;;;;9.97;37.87;100318.97;4972353;28;19935;-61
2022/11/29 13:04:32;;;;;;;;;;;;;;;10.11;37.62;100321.41;4965245;28;19918;-61
2022/11/29 13:07:03;;;;;;;;;;;;;;;10.16;37.28;100332.50;4966814;28;19982;-61
2022/11/29 13:09:35;;;;;;;;;;;;;;;10.36;35.91;100330.63;4968799;28;19969;-60
2022/11/29 13:12:00;;;;;;;;;;;;;;;10.30;35.44;100310.09;4951377;28;19921;-61
2022/11/29 13:14:33;;;;;;;;;;;;;;;10.22;35.43;100301.56;4964492;28;21293;-61